Sea Angel — V7II7 — position and weather

sailwx.info

Track history (hours):
 
Tides and Currents Weather Stations Pressure Air Temp Water Temp Dewpoint Dewpoint Depression Visibility Wind Speed Wind Dir Waves Ship Positions

Sea Angel

Last reported at 2018-May-07 08:10 UTC. Time now 2018-Jun-22 07:47 UTC.
Position N 41°37' E 141°39'.
Warning: this ship's position is 45 days out of date.

Length 181 m; draft 8.9 m.

Type: Cargo ship. MMSI: 538005945.

Date/timePositionNaut miles runAvg speedWind from/ knotsBaromVisibWave heightAir tempDewpointWater temp
2018-May-07 08:10N 41°37' E 141°39'213.5
2018-May-07 07:59N 41°37' E 141°35'713.2
2018-May-07 07:29N 41°37' E 141°27'612.0
2018-May-07 07:00N 41°37' E 141°19'613.1
2018-May-07 06:30N 41°37' E 141°10'714.8
2018-May-07 06:01N 41°36' E 141°00'714.6
2018-May-07 05:30N 41°35' E 140°51'713.5
2018-May-07 05:00N 41°31' E 140°43'713.7
2018-May-07 04:30N 41°27' E 140°36'714.2
2018-May-07 04:00N 41°23' E 140°28'814.7
2018-May-07 03:30N 41°19' E 140°20'1013.5
2018-May-07 02:47N 41°14' E 140°09'912.2
2018-May-07 02:04N 41°09' E 139°59'112.0
2018-May-07 01:57N 41°08' E 139°58'  
2018-Apr-29 13:14N 35°28' E 129°22'0 0.0
2018-Apr-28 17:35N 35°28' E 129°22'0 0.0
2018-Apr-28 17:23N 35°28' E 129°22'0 0.0
2018-Apr-28 16:59N 35°28' E 129°22'0 0.0
2018-Apr-28 12:23N 35°28' E 129°22'0 0.0
2018-Apr-28 03:17N 35°28' E 129°22'0 0.0
2018-Apr-28 02:59N 35°28' E 129°22'0 0.0
2018-Apr-28 01:29N 35°28' E 129°22'0 0.0
2018-Apr-27 23:05N 35°28' E 129°22'0 0.0
2018-Apr-27 22:59N 35°28' E 129°22'0 0.0
2018-Apr-27 22:11N 35°28' E 129°22'0 0.0
2018-Apr-27 21:59N 35°28' E 129°22'0 0.0
2018-Apr-27 21:23N 35°28' E 129°22'  
Track history (hours):
 
Tides and Currents Weather Stations Pressure Air Temp Water Temp Dewpoint Dewpoint Depression Visibility Wind Speed Wind Dir Waves Ship Positions

Sea Angel

Last reported at 2018-May-07 08:10 UTC. Time now 2018-Jun-22 07:47 UTC.
Position N 41°37' E 141°39'.
Warning: this ship's position is 45 days out of date.

Length 181 m; draft 8.9 m.

Type: Cargo ship. MMSI: 538005945.

Date/timePositionNaut miles runAvg speedWind from/ knotsBaromVisibWave heightAir tempDewpointWater temp
2018-May-07 08:10N 41°37' E 141°39'213.5
2018-May-07 07:59N 41°37' E 141°35'713.2
2018-May-07 07:29N 41°37' E 141°27'612.0
2018-May-07 07:00N 41°37' E 141°19'613.1
2018-May-07 06:30N 41°37' E 141°10'714.8
2018-May-07 06:01N 41°36' E 141°00'714.6
2018-May-07 05:30N 41°35' E 140°51'713.5
2018-May-07 05:00N 41°31' E 140°43'713.7
2018-May-07 04:30N 41°27' E 140°36'714.2
2018-May-07 04:00N 41°23' E 140°28'814.7
2018-May-07 03:30N 41°19' E 140°20'1013.5
2018-May-07 02:47N 41°14' E 140°09'912.2
2018-May-07 02:04N 41°09' E 139°59'112.0
2018-May-07 01:57N 41°08' E 139°58'  
2018-Apr-29 13:14N 35°28' E 129°22'0 0.0
2018-Apr-28 17:35N 35°28' E 129°22'0 0.0
2018-Apr-28 17:23N 35°28' E 129°22'0 0.0
2018-Apr-28 16:59N 35°28' E 129°22'0 0.0
2018-Apr-28 12:23N 35°28' E 129°22'0 0.0
2018-Apr-28 03:17N 35°28' E 129°22'0 0.0
2018-Apr-28 02:59N 35°28' E 129°22'0 0.0
2018-Apr-28 01:29N 35°28' E 129°22'0 0.0
2018-Apr-27 23:05N 35°28' E 129°22'0 0.0
2018-Apr-27 22:59N 35°28' E 129°22'0 0.0
2018-Apr-27 22:11N 35°28' E 129°22'0 0.0
2018-Apr-27 21:59N 35°28' E 129°22'0 0.0
2018-Apr-27 21:23N 35°28' E 129°22'  

Dump ship's entire track history